PWSweather.com
Personal Weather Stations
Station Observations
SHAHALMS1
Eftra, Falkenberg, HA

EftraFalkenberg, HA

Lat: 56.85, Lon: 12.65

Elevation: 140

Station Type:

http://hem.passagen.se/risarp101

High Low Average
Temperature 55.4°F13.0°C 30.9°F-0.6°C 42.7°F5.9°C
Dew Point 33.1°F0.6°C 13.3°F-10.4°C 22.4°F-5.3°C
Winds 13.4 mph 21.6 kmh Calm Calm 6.0 mph E9.7 kmh E
Wind Gusts 37.6 mph60.5 kmh -- 13.0 mph20.9 kmh
Humidity 54% 30% 45%
Pressure 30.51 in1033.2 mb 30.39 in1029.1 mb -
Precipitation 0.00 in0.0 mm - -
Hour Temp Dew Point Humidity Winds Wind Gusts Pressure Precip Precip Rate Daily Precip Total
12:00 AM 34.3°F1.3°C 17.6°F-8.0°C 50% Calm Calm -- 30.48 in1032.2 mb 0.00 in0.0 mm 0.00 in0.0 mm 0.00 in0.0 mm
12:15 AM 34.2°F1.2°C 17.9°F-7.8°C 51% Calm Calm -- 30.48 in1032.2 mb 0.00 in0.0 mm 0.00 in0.0 mm 0.00 in0.0 mm
12:30 AM 33.8°F1.0°C 17.6°F-8.0°C 51% Calm Calm -- 30.45 in1031.2 mb 0.00 in0.0 mm 0.00 in0.0 mm 0.00 in0.0 mm
12:45 AM 33.6°F0.9°C 17.4°F-8.1°C 51% Calm Calm -- 30.48 in1032.2 mb 0.00 in0.0 mm 0.00 in0.0 mm 0.00 in0.0 mm
01:00 AM 33.3°F0.7°C 17.1°F-8.3°C 51% Calm Calm -- 30.45 in1031.2 mb 0.00 in0.0 mm 0.00 in0.0 mm 0.00 in0.0 mm
01:15 AM 32.9°F0.5°C 16.7°F-8.5°C 51% Calm Calm -- 30.45 in1031.2 mb 0.00 in0.0 mm 0.00 in0.0 mm 0.00 in0.0 mm
01:30 AM 32.7°F0.4°C 16.6°F-8.6°C 51% Calm Calm -- 30.42 in1030.1 mb 0.00 in0.0 mm 0.00 in0.0 mm 0.00 in0.0 mm
01:45 AM 32.0°F0.0°C 16.3°F-8.7°C 52% Calm Calm -- 30.42 in1030.1 mb 0.00 in0.0 mm 0.00 in0.0 mm 0.00 in0.0 mm
02:00 AM 31.8°F-0.1°C 16.2°F-8.8°C 52% Calm Calm -- 30.42 in1030.1 mb 0.00 in0.0 mm 0.00 in0.0 mm 0.00 in0.0 mm
02:15 AM 31.5°F-0.3°C 15.8°F-9.0°C 52% Calm Calm -- 30.42 in1030.1 mb 0.00 in0.0 mm 0.00 in0.0 mm 0.00 in0.0 mm
02:30 AM 31.5°F-0.3°C 16.3°F-8.7°C 53% 0.1 mph E0.2 kmh E 5.7 mph9.2 kmh 30.42 in1030.1 mb 0.00 in0.0 mm 0.00 in0.0 mm 0.00 in0.0 mm
02:45 AM 30.9°F-0.6°C 15.8°F-9.0°C 53% 1.8 mph E2.9 kmh E 7.9 mph12.7 kmh 30.39 in1029.1 mb 0.00 in0.0 mm 0.00 in0.0 mm 0.00 in0.0 mm
03:00 AM 31.1°F-0.5°C 15.9°F-8.9°C 53% 0.1 mph E0.2 kmh E 3.9 mph6.3 kmh 30.39 in1029.1 mb 0.00 in0.0 mm 0.00 in0.0 mm 0.00 in0.0 mm
03:15 AM 31.5°F-0.3°C 16.7°F-8.5°C 54% Calm Calm -- 30.39 in1029.1 mb 0.00 in0.0 mm 0.00 in0.0 mm 0.00 in0.0 mm
03:30 AM 32.0°F0.0°C 17.2°F-8.2°C 54% 0.5 mph E0.8 kmh E 5.7 mph9.2 kmh 30.42 in1030.1 mb 0.00 in0.0 mm 0.00 in0.0 mm 0.00 in0.0 mm
03:45 AM 32.4°F0.2°C 17.6°F-8.0°C 54% 0.5 mph ENE0.8 kmh ENE 6.4 mph10.3 kmh 30.42 in1030.1 mb 0.00 in0.0 mm 0.00 in0.0 mm 0.00 in0.0 mm
04:00 AM 32.9°F0.5°C 18.1°F-7.7°C 54% 0.4 mph NE0.6 kmh NE 5.7 mph9.2 kmh 30.42 in1030.1 mb 0.00 in0.0 mm 0.00 in0.0 mm 0.00 in0.0 mm
04:15 AM 33.3°F0.7°C 18.4°F-7.6°C 54% 1.5 mph ENE2.4 kmh ENE 6.8 mph10.9 kmh 30.42 in1030.1 mb 0.00 in0.0 mm 0.00 in0.0 mm 0.00 in0.0 mm
04:30 AM 33.4°F0.8°C 18.6°F-7.4°C 54% 0.8 mph ENE1.3 kmh ENE 9.7 mph15.6 kmh 30.42 in1030.1 mb 0.00 in0.0 mm 0.00 in0.0 mm 0.00 in0.0 mm
04:45 AM 33.3°F0.7°C 18.4°F-7.6°C 54% 1.2 mph E1.9 kmh E 7.2 mph11.6 kmh 30.42 in1030.1 mb 0.00 in0.0 mm 0.00 in0.0 mm 0.00 in0.0 mm
05:00 AM 33.3°F0.7°C 18.0°F-7.8°C 53% 0.4 mph E0.6 kmh E 5.0 mph8.0 kmh 30.42 in1030.1 mb 0.00 in0.0 mm 0.00 in0.0 mm 0.00 in0.0 mm
05:15 AM 32.9°F0.5°C 17.6°F-8.0°C 53% 3.4 mph ENE5.5 kmh ENE 9.7 mph15.6 kmh 30.42 in1030.1 mb 0.00 in0.0 mm 0.00 in0.0 mm 0.00 in0.0 mm
05:30 AM 32.7°F0.4°C 17.5°F-8.1°C 53% 1.9 mph E3.1 kmh E 7.5 mph12.1 kmh 30.42 in1030.1 mb 0.00 in0.0 mm 0.00 in0.0 mm 0.00 in0.0 mm
05:45 AM 32.5°F0.3°C 17.3°F-8.2°C 53% 0.2 mph ENE0.3 kmh ENE 4.7 mph7.6 kmh 30.39 in1029.1 mb 0.00 in0.0 mm 0.00 in0.0 mm 0.00 in0.0 mm
06:00 AM 33.4°F0.8°C 18.6°F-7.4°C 54% 0.4 mph NE0.6 kmh NE 5.4 mph8.7 kmh 30.42 in1030.1 mb 0.00 in0.0 mm 0.00 in0.0 mm 0.00 in0.0 mm
06:15 AM 34.2°F1.2°C 19.2°F-7.1°C 54% 0.1 mph NE0.2 kmh NE 2.1 mph3.4 kmh 30.39 in1029.1 mb 0.00 in0.0 mm 0.00 in0.0 mm 0.00 in0.0 mm
06:30 AM 35.1°F1.7°C 20.1°F-6.6°C 54% 1.0 mph ENE1.6 kmh ENE 6.4 mph10.3 kmh 30.39 in1029.1 mb 0.00 in0.0 mm 0.00 in0.0 mm 0.00 in0.0 mm
06:45 AM 36.1°F2.3°C 21.1°F-6.1°C 54% 5.9 mph ENE9.5 kmh ENE 14.0 mph22.5 kmh 30.39 in1029.1 mb 0.00 in0.0 mm 0.00 in0.0 mm 0.00 in0.0 mm
07:00 AM 36.9°F2.7°C 21.7°F-5.7°C 54% 6.7 mph ENE10.8 kmh ENE 12.5 mph20.1 kmh 30.39 in1029.1 mb 0.00 in0.0 mm 0.00 in0.0 mm 0.00 in0.0 mm
07:15 AM 37.6°F3.1°C 22.4°F-5.3°C 54% 9.3 mph E15.0 kmh E 19.7 mph31.7 kmh 30.39 in1029.1 mb 0.00 in0.0 mm 0.00 in0.0 mm 0.00 in0.0 mm
07:30 AM 38.1°F3.4°C 22.9°F-5.1°C 54% 8.1 mph E13.0 kmh E 15.4 mph24.8 kmh 30.39 in1029.1 mb 0.00 in0.0 mm 0.00 in0.0 mm 0.00 in0.0 mm
07:45 AM 39.0°F3.9°C 23.8°F-4.6°C 54% 10.2 mph E16.4 kmh E 20.8 mph33.5 kmh 30.39 in1029.1 mb 0.00 in0.0 mm 0.00 in0.0 mm 0.00 in0.0 mm
08:00 AM 39.6°F4.2°C 23.8°F-4.6°C 53% 9.5 mph E15.3 kmh E 19.7 mph31.7 kmh 30.39 in1029.1 mb 0.00 in0.0 mm 0.00 in0.0 mm 0.00 in0.0 mm
08:15 AM 39.7°F4.3°C 24.0°F-4.4°C 53% 9.8 mph E15.8 kmh E 19.3 mph31.1 kmh 30.39 in1029.1 mb 0.00 in0.0 mm 0.00 in0.0 mm 0.00 in0.0 mm
08:30 AM 39.9°F4.4°C 24.2°F-4.3°C 53% 8.4 mph E13.5 kmh E 17.5 mph28.2 kmh 30.39 in1029.1 mb 0.00 in0.0 mm 0.00 in0.0 mm 0.00 in0.0 mm
08:45 AM 40.5°F4.7°C 24.7°F-4.1°C 53% 9.8 mph E15.8 kmh E 16.5 mph26.6 kmh 30.42 in1030.1 mb 0.00 in0.0 mm 0.00 in0.0 mm 0.00 in0.0 mm
09:00 AM 41.2°F5.1°C 25.3°F-3.7°C 53% 7.5 mph E12.1 kmh E 15.7 mph25.3 kmh 30.42 in1030.1 mb 0.00 in0.0 mm 0.00 in0.0 mm 0.00 in0.0 mm
09:15 AM 42.4°F5.8°C 26.5°F-3.1°C 53% 7.8 mph E12.6 kmh E 14.0 mph22.5 kmh 30.42 in1030.1 mb 0.00 in0.0 mm 0.00 in0.0 mm 0.00 in0.0 mm
09:30 AM 43.7°F6.5°C 27.7°F-2.4°C 53% 9.1 mph E14.6 kmh E 20.0 mph32.2 kmh 30.42 in1030.1 mb 0.00 in0.0 mm 0.00 in0.0 mm 0.00 in0.0 mm
09:45 AM 45.5°F7.5°C 29.3°F-1.5°C 53% 9.9 mph E15.9 kmh E 20.4 mph32.8 kmh 30.42 in1030.1 mb 0.00 in0.0 mm 0.00 in0.0 mm 0.00 in0.0 mm
09:59 AM 45.9°F7.7°C 29.2°F-1.6°C 52% 7.3 mph E11.7 kmh E 8.9 mph14.3 kmh 30.42 in1030.1 mb 0.00 in0.0 mm 0.00 in0.0 mm 0.00 in0.0 mm
10:00 AM 46.0°F7.8°C 29.4°F-1.4°C 52% 7.6 mph ENE12.2 kmh ENE 9.7 mph15.6 kmh 30.42 in1030.1 mb 0.00 in0.0 mm 0.00 in0.0 mm 0.00 in0.0 mm
10:01 AM 46.2°F7.9°C 29.5°F-1.4°C 52% 7.2 mph ENE11.6 kmh ENE 9.7 mph15.6 kmh 30.42 in1030.1 mb 0.00 in0.0 mm 0.00 in0.0 mm 0.00 in0.0 mm
10:02 AM 46.4°F8.0°C 29.7°F-1.3°C 52% 7.3 mph ENE11.7 kmh ENE 9.7 mph15.6 kmh 30.42 in1030.1 mb 0.00 in0.0 mm 0.00 in0.0 mm 0.00 in0.0 mm
10:03 AM 46.4°F8.0°C 29.7°F-1.3°C 52% 8.0 mph ENE12.9 kmh ENE 13.6 mph21.9 kmh 30.42 in1030.1 mb 0.00 in0.0 mm 0.00 in0.0 mm 0.00 in0.0 mm
10:04 AM 46.4°F8.0°C 29.7°F-1.3°C 52% 7.9 mph ENE12.7 kmh ENE 13.6 mph21.9 kmh 30.42 in1030.1 mb 0.00 in0.0 mm 0.00 in0.0 mm 0.00 in0.0 mm
10:05 AM 46.6°F8.1°C 29.9°F-1.2°C 52% 7.8 mph ENE12.6 kmh ENE 13.6 mph21.9 kmh 30.42 in1030.1 mb 0.00 in0.0 mm 0.00 in0.0 mm 0.00 in0.0 mm
10:06 AM 46.6°F8.1°C 29.9°F-1.2°C 52% 7.8 mph ENE12.6 kmh ENE 13.6 mph21.9 kmh 30.42 in1030.1 mb 0.00 in0.0 mm 0.00 in0.0 mm 0.00 in0.0 mm
10:07 AM 46.6°F8.1°C 29.9°F-1.2°C 52% 7.7 mph ENE12.4 kmh ENE 13.6 mph21.9 kmh 30.42 in1030.1 mb 0.00 in0.0 mm 0.00 in0.0 mm 0.00 in0.0 mm
10:08 AM 46.8°F8.2°C 30.0°F-1.1°C 52% 7.5 mph ENE12.1 kmh ENE 13.6 mph21.9 kmh 30.42 in1030.1 mb 0.00 in0.0 mm 0.00 in0.0 mm 0.00 in0.0 mm
10:15 AM 47.1°F8.4°C 29.9°F-1.2°C 51% 9.0 mph NE14.5 kmh NE 19.3 mph31.1 kmh 30.42 in1030.1 mb 0.00 in0.0 mm 0.00 in0.0 mm 0.00 in0.0 mm
10:30 AM 48.2°F9.0°C 30.9°F-0.6°C 51% 11.3 mph E18.2 kmh E 25.4 mph40.9 kmh 30.42 in1030.1 mb 0.00 in0.0 mm 0.00 in0.0 mm 0.00 in0.0 mm
10:45 AM 48.6°F9.2°C 30.7°F-0.7°C 50% 11.4 mph E18.3 kmh E 23.6 mph38.0 kmh 30.42 in1030.1 mb 0.00 in0.0 mm 0.00 in0.0 mm 0.00 in0.0 mm
11:00 AM 50.2°F10.1°C 31.2°F-0.4°C 48% 12.7 mph E20.4 kmh E 27.9 mph44.9 kmh 30.42 in1030.1 mb 0.00 in0.0 mm 0.00 in0.0 mm 0.00 in0.0 mm
11:15 AM 50.2°F10.1°C 30.2°F-1.0°C 46% 11.8 mph E19.0 kmh E 20.0 mph32.2 kmh 30.42 in1030.1 mb 0.00 in0.0 mm 0.00 in0.0 mm 0.00 in0.0 mm
11:30 AM 50.4°F10.2°C 29.8°F-1.2°C 45% 13.1 mph E21.1 kmh E 28.3 mph45.5 kmh 30.42 in1030.1 mb 0.00 in0.0 mm 0.00 in0.0 mm 0.00 in0.0 mm
11:45 AM 50.4°F10.2°C 29.2°F-1.6°C 44% 12.9 mph E20.8 kmh E 27.6 mph44.4 kmh 30.42 in1030.1 mb 0.00 in0.0 mm 0.00 in0.0 mm 0.00 in0.0 mm
12:00 PM 50.7°F10.4°C 29.6°F-1.3°C 44% 10.7 mph E17.2 kmh E 22.2 mph35.7 kmh 30.39 in1029.1 mb 0.00 in0.0 mm 0.00 in0.0 mm 0.00 in0.0 mm
12:15 PM 51.6°F10.9°C 30.4°F-0.9°C 44% 9.7 mph E15.6 kmh E 21.1 mph34.0 kmh 30.42 in1030.1 mb 0.00 in0.0 mm 0.00 in0.0 mm 0.00 in0.0 mm
12:30 PM 50.0°F10.0°C 28.4°F-2.0°C 43% 13.1 mph E21.1 kmh E 37.6 mph60.5 kmh 30.42 in1030.1 mb 0.00 in0.0 mm 0.00 in0.0 mm 0.00 in0.0 mm
12:45 PM 49.8°F9.9°C 29.3°F-1.5°C 45% 9.1 mph SE14.6 kmh SE 21.5 mph34.6 kmh 30.42 in1030.1 mb 0.00 in0.0 mm 0.00 in0.0 mm 0.00 in0.0 mm
01:00 PM 52.2°F11.2°C 32.0°F0.0°C 46% 7.9 mph SE12.7 kmh SE 17.5 mph28.2 kmh 30.42 in1030.1 mb 0.00 in0.0 mm 0.00 in0.0 mm 0.00 in0.0 mm
01:15 PM 54.0°F12.2°C 33.1°F0.6°C 45% 9.2 mph SE14.8 kmh SE 16.5 mph26.6 kmh 30.42 in1030.1 mb 0.00 in0.0 mm 0.00 in0.0 mm 0.00 in0.0 mm
01:30 PM 53.4°F11.9°C 31.5°F-0.3°C 43% 8.4 mph SE13.5 kmh SE 20.4 mph32.8 kmh 30.42 in1030.1 mb 0.00 in0.0 mm 0.00 in0.0 mm 0.00 in0.0 mm
01:45 PM 53.2°F11.8°C 30.1°F-1.1°C 41% 8.4 mph E13.5 kmh E 16.5 mph26.6 kmh 30.42 in1030.1 mb 0.00 in0.0 mm 0.00 in0.0 mm 0.00 in0.0 mm
02:00 PM 52.9°F11.6°C 29.2°F-1.6°C 40% 11.4 mph E18.3 kmh E 23.3 mph37.5 kmh 30.42 in1030.1 mb 0.00 in0.0 mm 0.00 in0.0 mm 0.00 in0.0 mm
02:15 PM 53.2°F11.8°C 29.5°F-1.4°C 40% 9.2 mph E14.8 kmh E 22.9 mph36.9 kmh 30.42 in1030.1 mb 0.00 in0.0 mm 0.00 in0.0 mm 0.00 in0.0 mm
02:30 PM 52.5°F11.4°C 28.9°F-1.7°C 40% 8.8 mph E14.2 kmh E 20.8 mph33.5 kmh 30.39 in1029.1 mb 0.00 in0.0 mm 0.00 in0.0 mm 0.00 in0.0 mm
02:45 PM 52.5°F11.4°C 28.9°F-1.7°C 40% 9.3 mph ENE15.0 kmh ENE 17.5 mph28.2 kmh 30.39 in1029.1 mb 0.00 in0.0 mm 0.00 in0.0 mm 0.00 in0.0 mm
03:00 PM 52.5°F11.4°C 28.9°F-1.7°C 40% 11.3 mph E18.2 kmh E 20.8 mph33.5 kmh 30.39 in1029.1 mb 0.00 in0.0 mm 0.00 in0.0 mm 0.00 in0.0 mm
03:15 PM 52.7°F11.5°C 29.0°F-1.7°C 40% 9.1 mph E14.6 kmh E 21.1 mph34.0 kmh 30.39 in1029.1 mb 0.00 in0.0 mm 0.00 in0.0 mm 0.00 in0.0 mm
03:30 PM 52.7°F11.5°C 28.4°F-2.0°C 39% 10.5 mph E16.9 kmh E 20.8 mph33.5 kmh 30.39 in1029.1 mb 0.00 in0.0 mm 0.00 in0.0 mm 0.00 in0.0 mm
03:45 PM 54.3°F12.4°C 29.2°F-1.6°C 38% 8.1 mph ESE13.0 kmh ESE 16.5 mph26.6 kmh 30.39 in1029.1 mb 0.00 in0.0 mm 0.00 in0.0 mm 0.00 in0.0 mm
04:00 PM 55.4°F13.0°C 28.2°F-2.1°C 35% 10.3 mph SE16.6 kmh SE 22.9 mph36.9 kmh 30.39 in1029.1 mb 0.00 in0.0 mm 0.00 in0.0 mm 0.00 in0.0 mm
04:15 PM 55.4°F13.0°C 26.7°F-2.9°C 33% 11.1 mph SE17.9 kmh SE 20.8 mph33.5 kmh 30.39 in1029.1 mb 0.00 in0.0 mm 0.00 in0.0 mm 0.00 in0.0 mm
04:30 PM 54.9°F12.7°C 25.5°F-3.6°C 32% 12.0 mph SE19.3 kmh SE 22.9 mph36.9 kmh 30.39 in1029.1 mb 0.00 in0.0 mm 0.00 in0.0 mm 0.00 in0.0 mm
04:45 PM 54.3°F12.4°C 24.3°F-4.3°C 31% 13.4 mph SE21.6 kmh SE 27.9 mph44.9 kmh 30.39 in1029.1 mb 0.00 in0.0 mm 0.00 in0.0 mm 0.00 in0.0 mm
05:00 PM 54.0°F12.2°C 24.0°F-4.4°C 31% 9.8 mph SSE15.8 kmh SSE 21.1 mph34.0 kmh 30.39 in1029.1 mb 0.00 in0.0 mm 0.00 in0.0 mm 0.00 in0.0 mm
05:15 PM 53.4°F11.9°C 23.5°F-4.7°C 31% 9.7 mph SE15.6 kmh SE 19.7 mph31.7 kmh 30.39 in1029.1 mb 0.00 in0.0 mm 0.00 in0.0 mm 0.00 in0.0 mm
05:30 PM 52.9°F11.6°C 22.2°F-5.4°C 30% 9.9 mph SE15.9 kmh SE 20.4 mph32.8 kmh 30.39 in1029.1 mb 0.00 in0.0 mm 0.00 in0.0 mm 0.00 in0.0 mm
05:45 PM 51.8°F11.0°C 21.3°F-5.9°C 30% 9.0 mph SE14.5 kmh SE 17.2 mph27.7 kmh 30.42 in1030.1 mb 0.00 in0.0 mm 0.00 in0.0 mm 0.00 in0.0 mm
06:00 PM 50.7°F10.4°C 21.1°F-6.1°C 31% 6.1 mph SE9.8 kmh SE 16.5 mph26.6 kmh 30.42 in1030.1 mb 0.00 in0.0 mm 0.00 in0.0 mm 0.00 in0.0 mm
06:15 PM 49.6°F9.8°C 20.2°F-6.6°C 31% 6.7 mph SE10.8 kmh SE 13.6 mph21.9 kmh 30.42 in1030.1 mb 0.00 in0.0 mm 0.00 in0.0 mm 0.00 in0.0 mm
06:30 PM 48.7°F9.3°C 19.4°F-7.0°C 31% 6.0 mph SE9.7 kmh SE 16.5 mph26.6 kmh 30.42 in1030.1 mb 0.00 in0.0 mm 0.00 in0.0 mm 0.00 in0.0 mm
06:45 PM 47.8°F8.8°C 18.6°F-7.4°C 31% 3.8 mph SE6.1 kmh SE 14.0 mph22.5 kmh 30.39 in1029.1 mb 0.00 in0.0 mm 0.00 in0.0 mm 0.00 in0.0 mm
07:00 PM 46.9°F8.3°C 17.8°F-7.9°C 31% 8.1 mph SE13.0 kmh SE 14.0 mph22.5 kmh 30.42 in1030.1 mb 0.00 in0.0 mm 0.00 in0.0 mm 0.00 in0.0 mm
07:15 PM 46.0°F7.8°C 17.0°F-8.3°C 31% 4.6 mph SE7.4 kmh SE 12.5 mph20.1 kmh 30.42 in1030.1 mb 0.00 in0.0 mm 0.00 in0.0 mm 0.00 in0.0 mm
07:30 PM 45.1°F7.3°C 17.0°F-8.3°C 32% 5.5 mph SE8.9 kmh SE 12.9 mph20.8 kmh 30.45 in1031.2 mb 0.00 in0.0 mm 0.00 in0.0 mm 0.00 in0.0 mm
07:45 PM 44.2°F6.8°C 16.2°F-8.8°C 32% 5.2 mph SE8.4 kmh SE 9.7 mph15.6 kmh 30.45 in1031.2 mb 0.00 in0.0 mm 0.00 in0.0 mm 0.00 in0.0 mm
08:00 PM 43.5°F6.4°C 15.6°F-9.1°C 32% 1.8 mph ESE2.9 kmh ESE 10.0 mph16.1 kmh 30.45 in1031.2 mb 0.00 in0.0 mm 0.00 in0.0 mm 0.00 in0.0 mm
08:15 PM 42.8°F6.0°C 14.9°F-9.5°C 32% 2.1 mph E3.4 kmh E 7.9 mph12.7 kmh 30.45 in1031.2 mb 0.00 in0.0 mm 0.00 in0.0 mm 0.00 in0.0 mm
08:30 PM 41.9°F5.5°C 14.8°F-9.6°C 33% 1.9 mph ESE3.1 kmh ESE 6.1 mph9.8 kmh 30.48 in1032.2 mb 0.00 in0.0 mm 0.00 in0.0 mm 0.00 in0.0 mm
08:45 PM 41.2°F5.1°C 14.2°F-9.9°C 33% 2.2 mph E3.5 kmh E 8.9 mph14.3 kmh 30.48 in1032.2 mb 0.00 in0.0 mm 0.00 in0.0 mm 0.00 in0.0 mm
09:00 PM 40.5°F4.7°C 14.3°F-9.8°C 34% 0.1 mph NE0.2 kmh NE 2.1 mph3.4 kmh 30.48 in1032.2 mb 0.00 in0.0 mm 0.00 in0.0 mm 0.00 in0.0 mm
09:15 PM 39.4°F4.1°C 13.3°F-10.4°C 34% 0.6 mph NE1.0 kmh NE 4.7 mph7.6 kmh 30.48 in1032.2 mb 0.00 in0.0 mm 0.00 in0.0 mm 0.00 in0.0 mm
09:30 PM 38.7°F3.7°C 13.3°F-10.4°C 35% 0.8 mph NNE1.3 kmh NNE 6.1 mph9.8 kmh 30.48 in1032.2 mb 0.00 in0.0 mm 0.00 in0.0 mm 0.00 in0.0 mm
09:45 PM 38.1°F3.4°C 13.5°F-10.3°C 36% 0.9 mph ESE1.4 kmh ESE 6.8 mph10.9 kmh 30.48 in1032.2 mb 0.00 in0.0 mm 0.00 in0.0 mm 0.00 in0.0 mm
10:00 PM 37.6°F3.1°C 13.6°F-10.2°C 37% 0.1 mph N0.2 kmh N 3.9 mph6.3 kmh 30.48 in1032.2 mb 0.00 in0.0 mm 0.00 in0.0 mm 0.00 in0.0 mm
10:15 PM 37.0°F2.8°C 13.7°F-10.2°C 38% 0.4 mph E0.6 kmh E 4.7 mph7.6 kmh 30.48 in1032.2 mb 0.00 in0.0 mm 0.00 in0.0 mm 0.00 in0.0 mm
10:30 PM 36.5°F2.5°C 13.9°F-10.1°C 39% 0.4 mph N0.6 kmh N 3.6 mph5.8 kmh 30.48 in1032.2 mb 0.00 in0.0 mm 0.00 in0.0 mm 0.00 in0.0 mm
10:45 PM 36.7°F2.6°C 14.6°F-9.7°C 40% 0.8 mph NNE1.3 kmh NNE 6.1 mph9.8 kmh 30.51 in1033.2 mb 0.00 in0.0 mm 0.00 in0.0 mm 0.00 in0.0 mm
11:00 PM 36.9°F2.7°C 15.3°F-9.3°C 41% 3.8 mph E6.1 kmh E 12.5 mph20.1 kmh 30.48 in1032.2 mb 0.00 in0.0 mm 0.00 in0.0 mm 0.00 in0.0 mm
11:15 PM 37.0°F2.8°C 16.0°F-8.9°C 42% 4.8 mph ENE7.7 kmh ENE 10.0 mph16.1 kmh 30.51 in1033.2 mb 0.00 in0.0 mm 0.00 in0.0 mm 0.00 in0.0 mm
11:30 PM 37.0°F2.8°C 16.6°F-8.6°C 43% 2.3 mph NE3.7 kmh NE 8.6 mph13.8 kmh 30.48 in1032.2 mb 0.00 in0.0 mm 0.00 in0.0 mm 0.00 in0.0 mm
11:45 PM 36.9°F2.7°C 16.4°F-8.7°C 43% 1.0 mph ENE1.6 kmh ENE 8.6 mph13.8 kmh 30.48 in1032.2 mb 0.00 in0.0 mm 0.00 in0.0 mm 0.00 in0.0 mm